sensor_id;sensor_type;location;lat;lon;timestamp;P1;durP1;ratioP1;P2;durP2;ratioP2
46090;SDS011;31826;53.572;10.170;2022-08-21T00:00:26;5.30;;;1.97;;
46090;SDS011;31826;53.572;10.170;2022-08-21T00:02:56;5.20;;;1.80;;
46090;SDS011;31826;53.572;10.170;2022-08-21T00:05:27;4.63;;;1.98;;
46090;SDS011;31826;53.572;10.170;2022-08-21T00:07:54;5.70;;;1.85;;
46090;SDS011;31826;53.572;10.170;2022-08-21T00:10:21;6.10;;;2.00;;
46090;SDS011;31826;53.572;10.170;2022-08-21T00:12:47;6.15;;;1.92;;
46090;SDS011;31826;53.572;10.170;2022-08-21T00:15:21;5.40;;;2.30;;
46090;SDS011;31826;53.572;10.170;2022-08-21T00:17:54;3.95;;;1.67;;
46090;SDS011;31826;53.572;10.170;2022-08-21T00:20:20;3.97;;;1.80;;
46090;SDS011;31826;53.572;10.170;2022-08-21T00:22:47;5.10;;;1.85;;
46090;SDS011;31826;53.572;10.170;2022-08-21T00:25:14;3.72;;;1.92;;
46090;SDS011;31826;53.572;10.170;2022-08-21T00:27:40;3.55;;;1.70;;
46090;SDS011;31826;53.572;10.170;2022-08-21T00:30:07;5.20;;;1.98;;
46090;SDS011;31826;53.572;10.170;2022-08-21T00:32:36;4.30;;;1.83;;
46090;SDS011;31826;53.572;10.170;2022-08-21T00:35:04;5.32;;;1.90;;
46090;SDS011;31826;53.572;10.170;2022-08-21T00:37:30;6.72;;;2.08;;
46090;SDS011;31826;53.572;10.170;2022-08-21T00:39:56;5.93;;;2.28;;
46090;SDS011;31826;53.572;10.170;2022-08-21T00:42:22;5.57;;;2.25;;
46090;SDS011;31826;53.572;10.170;2022-08-21T00:44:48;5.65;;;2.30;;
46090;SDS011;31826;53.572;10.170;2022-08-21T00:47:15;6.18;;;2.38;;
46090;SDS011;31826;53.572;10.170;2022-08-21T00:49:42;6.15;;;2.35;;
46090;SDS011;31826;53.572;10.170;2022-08-21T00:52:15;6.38;;;2.10;;
46090;SDS011;31826;53.572;10.170;2022-08-21T00:54:45;5.70;;;2.23;;
46090;SDS011;31826;53.572;10.170;2022-08-21T00:57:15;5.40;;;2.20;;
46090;SDS011;31826;53.572;10.170;2022-08-21T00:59:45;4.07;;;2.17;;
46090;SDS011;31826;53.572;10.170;2022-08-21T01:02:15;5.45;;;2.20;;
46090;SDS011;31826;53.572;10.170;2022-08-21T01:04:42;6.15;;;2.30;;
46090;SDS011;31826;53.572;10.170;2022-08-21T01:07:08;5.65;;;2.45;;
46090;SDS011;31826;53.572;10.170;2022-08-21T01:09:35;6.17;;;2.90;;
46090;SDS011;31826;53.572;10.170;2022-08-21T01:12:01;6.95;;;2.40;;
46090;SDS011;31826;53.572;10.170;2022-08-21T01:14:28;6.63;;;2.30;;
46090;SDS011;31826;53.572;10.170;2022-08-21T01:16:55;4.93;;;2.10;;
46090;SDS011;31826;53.572;10.170;2022-08-21T01:19:23;5.95;;;2.38;;
46090;SDS011;31826;53.572;10.170;2022-08-21T01:21:49;5.05;;;2.20;;
46090;SDS011;31826;53.572;10.170;2022-08-21T01:24:16;5.95;;;2.40;;
46090;SDS011;31826;53.572;10.170;2022-08-21T01:26:42;5.05;;;2.60;;
46090;SDS011;31826;53.572;10.170;2022-08-21T01:29:14;7.23;;;2.40;;
46090;SDS011;31826;53.572;10.170;2022-08-21T01:31:47;5.95;;;2.30;;
46090;SDS011;31826;53.572;10.170;2022-08-21T01:34:14;5.80;;;2.30;;
46090;SDS011;31826;53.572;10.170;2022-08-21T01:36:41;7.20;;;2.50;;
46090;SDS011;31826;53.572;10.170;2022-08-21T01:39:07;4.32;;;2.08;;
46090;SDS011;31826;53.572;10.170;2022-08-21T01:41:34;7.07;;;2.50;;
46090;SDS011;31826;53.572;10.170;2022-08-21T01:44:00;6.88;;;2.53;;
46090;SDS011;31826;53.572;10.170;2022-08-21T01:46:26;5.82;;;2.45;;
46090;SDS011;31826;53.572;10.170;2022-08-21T01:48:52;5.20;;;2.25;;
46090;SDS011;31826;53.572;10.170;2022-08-21T01:51:18;5.80;;;2.53;;
46090;SDS011;31826;53.572;10.170;2022-08-21T01:53:44;6.10;;;2.05;;
46090;SDS011;31826;53.572;10.170;2022-08-21T01:56:11;6.97;;;2.30;;
46090;SDS011;31826;53.572;10.170;2022-08-21T01:58:40;6.82;;;2.60;;
46090;SDS011;31826;53.572;10.170;2022-08-21T02:01:06;7.07;;;2.55;;
46090;SDS011;31826;53.572;10.170;2022-08-21T02:03:32;6.17;;;2.37;;
46090;SDS011;31826;53.572;10.170;2022-08-21T02:05:58;5.90;;;2.27;;
46090;SDS011;31826;53.572;10.170;2022-08-21T02:08:24;5.63;;;2.63;;
46090;SDS011;31826;53.572;10.170;2022-08-21T02:10:50;5.13;;;2.30;;
46090;SDS011;31826;53.572;10.170;2022-08-21T02:13:16;8.35;;;2.58;;
46090;SDS011;31826;53.572;10.170;2022-08-21T02:15:43;6.57;;;2.72;;
46090;SDS011;31826;53.572;10.170;2022-08-21T02:18:09;5.60;;;2.30;;
46090;SDS011;31826;53.572;10.170;2022-08-21T02:20:36;5.72;;;2.30;;
46090;SDS011;31826;53.572;10.170;2022-08-21T02:23:04;4.88;;;2.28;;
46090;SDS011;31826;53.572;10.170;2022-08-21T02:25:31;6.93;;;2.75;;
46090;SDS011;31826;53.572;10.170;2022-08-21T02:27:57;9.75;;;3.05;;
46090;SDS011;31826;53.572;10.170;2022-08-21T02:30:28;8.00;;;2.80;;
46090;SDS011;31826;53.572;10.170;2022-08-21T02:32:56;5.65;;;2.50;;
46090;SDS011;31826;53.572;10.170;2022-08-21T02:35:23;6.40;;;2.47;;
46090;SDS011;31826;53.572;10.170;2022-08-21T02:37:51;7.28;;;2.78;;
46090;SDS011;31826;53.572;10.170;2022-08-21T02:40:23;7.20;;;2.70;;
46090;SDS011;31826;53.572;10.170;2022-08-21T02:42:51;7.30;;;2.67;;
46090;SDS011;31826;53.572;10.170;2022-08-21T02:45:17;4.75;;;2.42;;
46090;SDS011;31826;53.572;10.170;2022-08-21T02:47:47;5.55;;;2.47;;
46090;SDS011;31826;53.572;10.170;2022-08-21T02:50:16;7.18;;;3.35;;
46090;SDS011;31826;53.572;10.170;2022-08-21T02:52:45;6.70;;;2.58;;
46090;SDS011;31826;53.572;10.170;2022-08-21T02:55:11;4.35;;;2.20;;
46090;SDS011;31826;53.572;10.170;2022-08-21T02:57:37;4.80;;;2.20;;
46090;SDS011;31826;53.572;10.170;2022-08-21T03:00:04;5.38;;;2.60;;
46090;SDS011;31826;53.572;10.170;2022-08-21T03:02:30;6.20;;;2.33;;
46090;SDS011;31826;53.572;10.170;2022-08-21T03:04:56;5.30;;;2.17;;
46090;SDS011;31826;53.572;10.170;2022-08-21T03:07:22;7.65;;;2.47;;
46090;SDS011;31826;53.572;10.170;2022-08-21T03:09:49;6.20;;;2.60;;
46090;SDS011;31826;53.572;10.170;2022-08-21T03:12:15;5.32;;;2.40;;
46090;SDS011;31826;53.572;10.170;2022-08-21T03:14:41;3.75;;;2.20;;
46090;SDS011;31826;53.572;10.170;2022-08-21T03:17:06;6.50;;;2.60;;
46090;SDS011;31826;53.572;10.170;2022-08-21T03:19:32;5.93;;;2.17;;
46090;SDS011;31826;53.572;10.170;2022-08-21T03:21:58;6.57;;;2.40;;
46090;SDS011;31826;53.572;10.170;2022-08-21T03:24:24;5.23;;;2.20;;
46090;SDS011;31826;53.572;10.170;2022-08-21T03:26:50;5.25;;;2.20;;
46090;SDS011;31826;53.572;10.170;2022-08-21T03:29:15;5.63;;;2.10;;
46090;SDS011;31826;53.572;10.170;2022-08-21T03:31:41;5.47;;;2.00;;
46090;SDS011;31826;53.572;10.170;2022-08-21T03:34:07;3.73;;;2.10;;
46090;SDS011;31826;53.572;10.170;2022-08-21T03:36:33;5.30;;;2.27;;
46090;SDS011;31826;53.572;10.170;2022-08-21T03:38:59;4.40;;;1.98;;
46090;SDS011;31826;53.572;10.170;2022-08-21T03:41:24;6.15;;;2.20;;
46090;SDS011;31826;53.572;10.170;2022-08-21T03:43:50;4.40;;;2.22;;
46090;SDS011;31826;53.572;10.170;2022-08-21T03:46:16;6.55;;;2.30;;
46090;SDS011;31826;53.572;10.170;2022-08-21T03:48:42;4.15;;;2.13;;
46090;SDS011;31826;53.572;10.170;2022-08-21T03:51:07;5.47;;;2.10;;
46090;SDS011;31826;53.572;10.170;2022-08-21T03:53:33;4.88;;;1.98;;
46090;SDS011;31826;53.572;10.170;2022-08-21T03:55:59;4.68;;;2.30;;
46090;SDS011;31826;53.572;10.170;2022-08-21T03:58:25;5.32;;;2.70;;
46090;SDS011;31826;53.572;10.170;2022-08-21T04:00:55;5.47;;;2.70;;
46090;SDS011;31826;53.572;10.170;2022-08-21T04:03:22;4.45;;;2.30;;
46090;SDS011;31826;53.572;10.170;2022-08-21T04:05:48;5.50;;;2.17;;
46090;SDS011;31826;53.572;10.170;2022-08-21T04:08:14;4.10;;;2.00;;
46090;SDS011;31826;53.572;10.170;2022-08-21T04:10:42;5.60;;;2.00;;
46090;SDS011;31826;53.572;10.170;2022-08-21T04:13:09;4.45;;;2.13;;
46090;SDS011;31826;53.572;10.170;2022-08-21T04:15:35;4.00;;;2.20;;
46090;SDS011;31826;53.572;10.170;2022-08-21T04:18:01;4.90;;;2.40;;
46090;SDS011;31826;53.572;10.170;2022-08-21T04:20:28;4.00;;;2.25;;
46090;SDS011;31826;53.572;10.170;2022-08-21T04:22:54;4.10;;;2.00;;
46090;SDS011;31826;53.572;10.170;2022-08-21T04:25:21;3.80;;;2.05;;
46090;SDS011;31826;53.572;10.170;2022-08-21T04:27:48;4.25;;;2.08;;
46090;SDS011;31826;53.572;10.170;2022-08-21T04:30:14;6.10;;;2.67;;
46090;SDS011;31826;53.572;10.170;2022-08-21T04:32:44;5.00;;;2.20;;
46090;SDS011;31826;53.572;10.170;2022-08-21T04:35:12;4.90;;;2.40;;
46090;SDS011;31826;53.572;10.170;2022-08-21T04:37:39;4.82;;;2.35;;
46090;SDS011;31826;53.572;10.170;2022-08-21T04:40:05;3.47;;;2.35;;
46090;SDS011;31826;53.572;10.170;2022-08-21T04:42:32;5.70;;;2.20;;
46090;SDS011;31826;53.572;10.170;2022-08-21T04:45:05;10.07;;;2.63;;
46090;SDS011;31826;53.572;10.170;2022-08-21T04:47:31;5.82;;;2.58;;
46090;SDS011;31826;53.572;10.170;2022-08-21T04:49:56;5.85;;;2.53;;
46090;SDS011;31826;53.572;10.170;2022-08-21T04:52:22;6.20;;;2.60;;
46090;SDS011;31826;53.572;10.170;2022-08-21T04:54:49;7.17;;;2.70;;
46090;SDS011;31826;53.572;10.170;2022-08-21T04:57:16;5.20;;;2.70;;
46090;SDS011;31826;53.572;10.170;2022-08-21T04:59:44;5.80;;;2.90;;
46090;SDS011;31826;53.572;10.170;2022-08-21T05:02:13;7.50;;;2.92;;
46090;SDS011;31826;53.572;10.170;2022-08-21T05:04:42;7.57;;;3.15;;
46090;SDS011;31826;53.572;10.170;2022-08-21T05:07:12;8.63;;;3.25;;
46090;SDS011;31826;53.572;10.170;2022-08-21T05:09:42;6.72;;;2.80;;
46090;SDS011;31826;53.572;10.170;2022-08-21T05:12:08;6.88;;;2.72;;
46090;SDS011;31826;53.572;10.170;2022-08-21T05:14:35;7.97;;;3.03;;
46090;SDS011;31826;53.572;10.170;2022-08-21T05:17:01;6.60;;;2.55;;
46090;SDS011;31826;53.572;10.170;2022-08-21T05:19:27;8.85;;;3.25;;
46090;SDS011;31826;53.572;10.170;2022-08-21T05:21:54;6.53;;;2.80;;
46090;SDS011;31826;53.572;10.170;2022-08-21T05:24:20;4.78;;;2.60;;
46090;SDS011;31826;53.572;10.170;2022-08-21T05:26:45;5.20;;;2.50;;
46090;SDS011;31826;53.572;10.170;2022-08-21T05:29:12;8.93;;;3.10;;
46090;SDS011;31826;53.572;10.170;2022-08-21T05:31:41;8.27;;;2.60;;
46090;SDS011;31826;53.572;10.170;2022-08-21T05:34:07;5.95;;;2.95;;
46090;SDS011;31826;53.572;10.170;2022-08-21T05:36:33;5.13;;;2.57;;
46090;SDS011;31826;53.572;10.170;2022-08-21T05:38:59;7.68;;;3.00;;
46090;SDS011;31826;53.572;10.170;2022-08-21T05:41:25;6.82;;;2.67;;
46090;SDS011;31826;53.572;10.170;2022-08-21T05:43:50;7.30;;;3.70;;
46090;SDS011;31826;53.572;10.170;2022-08-21T05:46:17;6.18;;;2.72;;
46090;SDS011;31826;53.572;10.170;2022-08-21T05:48:42;7.47;;;2.73;;
46090;SDS011;31826;53.572;10.170;2022-08-21T05:51:09;5.83;;;2.60;;
46090;SDS011;31826;53.572;10.170;2022-08-21T05:53:38;6.90;;;2.75;;
46090;SDS011;31826;53.572;10.170;2022-08-21T05:56:04;6.07;;;2.80;;
46090;SDS011;31826;53.572;10.170;2022-08-21T05:58:31;7.97;;;2.90;;
46090;SDS011;31826;53.572;10.170;2022-08-21T06:00:58;5.50;;;2.77;;
46090;SDS011;31826;53.572;10.170;2022-08-21T06:03:27;6.50;;;2.97;;
46090;SDS011;31826;53.572;10.170;2022-08-21T06:05:55;6.60;;;2.97;;
46090;SDS011;31826;53.572;10.170;2022-08-21T06:08:22;6.47;;;3.00;;
46090;SDS011;31826;53.572;10.170;2022-08-21T06:10:48;13.00;;;3.72;;
46090;SDS011;31826;53.572;10.170;2022-08-21T06:13:16;6.78;;;3.17;;
46090;SDS011;31826;53.572;10.170;2022-08-21T06:15:42;5.93;;;2.92;;
46090;SDS011;31826;53.572;10.170;2022-08-21T06:18:08;5.13;;;2.57;;
46090;SDS011;31826;53.572;10.170;2022-08-21T06:20:35;7.03;;;2.78;;
46090;SDS011;31826;53.572;10.170;2022-08-21T06:23:01;6.40;;;2.35;;
46090;SDS011;31826;53.572;10.170;2022-08-21T06:25:27;7.40;;;2.80;;
46090;SDS011;31826;53.572;10.170;2022-08-21T06:27:53;6.85;;;2.60;;
46090;SDS011;31826;53.572;10.170;2022-08-21T06:30:25;5.45;;;2.42;;
46090;SDS011;31826;53.572;10.170;2022-08-21T06:32:50;6.07;;;2.40;;
46090;SDS011;31826;53.572;10.170;2022-08-21T06:35:16;5.50;;;2.63;;
46090;SDS011;31826;53.572;10.170;2022-08-21T06:37:42;5.53;;;2.20;;
46090;SDS011;31826;53.572;10.170;2022-08-21T06:40:08;4.35;;;2.25;;
46090;SDS011;31826;53.572;10.170;2022-08-21T06:42:34;6.50;;;2.60;;
46090;SDS011;31826;53.572;10.170;2022-08-21T06:44:59;5.27;;;2.33;;
46090;SDS011;31826;53.572;10.170;2022-08-21T06:47:25;5.73;;;2.33;;
46090;SDS011;31826;53.572;10.170;2022-08-21T06:49:51;6.00;;;2.40;;
46090;SDS011;31826;53.572;10.170;2022-08-21T06:52:17;5.28;;;2.08;;
46090;SDS011;31826;53.572;10.170;2022-08-21T06:54:43;7.47;;;2.55;;
46090;SDS011;31826;53.572;10.170;2022-08-21T06:57:09;6.93;;;2.85;;
46090;SDS011;31826;53.572;10.170;2022-08-21T06:59:35;8.70;;;2.80;;
46090;SDS011;31826;53.572;10.170;2022-08-21T07:02:00;6.87;;;2.60;;
46090;SDS011;31826;53.572;10.170;2022-08-21T07:04:26;5.33;;;2.10;;
46090;SDS011;31826;53.572;10.170;2022-08-21T07:06:52;5.53;;;2.23;;
46090;SDS011;31826;53.572;10.170;2022-08-21T07:09:18;5.63;;;2.20;;
46090;SDS011;31826;53.572;10.170;2022-08-21T07:11:44;5.63;;;2.20;;
46090;SDS011;31826;53.572;10.170;2022-08-21T07:14:14;4.88;;;2.47;;
46090;SDS011;31826;53.572;10.170;2022-08-21T07:16:40;6.10;;;2.00;;
46090;SDS011;31826;53.572;10.170;2022-08-21T07:19:05;5.20;;;1.67;;
46090;SDS011;31826;53.572;10.170;2022-08-21T07:21:31;5.07;;;1.70;;
46090;SDS011;31826;53.572;10.170;2022-08-21T07:23:57;6.13;;;1.87;;
46090;SDS011;31826;53.572;10.170;2022-08-21T07:26:23;2.95;;;1.40;;
46090;SDS011;31826;53.572;10.170;2022-08-21T07:28:50;3.85;;;1.60;;
46090;SDS011;31826;53.572;10.170;2022-08-21T07:31:18;3.88;;;1.60;;
46090;SDS011;31826;53.572;10.170;2022-08-21T07:33:45;5.90;;;1.70;;
46090;SDS011;31826;53.572;10.170;2022-08-21T07:36:12;4.07;;;1.60;;
46090;SDS011;31826;53.572;10.170;2022-08-21T07:38:38;3.50;;;1.45;;
46090;SDS011;31826;53.572;10.170;2022-08-21T07:41:15;4.07;;;1.40;;
46090;SDS011;31826;53.572;10.170;2022-08-21T07:43:43;4.32;;;1.40;;
46090;SDS011;31826;53.572;10.170;2022-08-21T07:46:09;3.28;;;1.52;;
46090;SDS011;31826;53.572;10.170;2022-08-21T07:48:36;3.72;;;1.40;;
46090;SDS011;31826;53.572;10.170;2022-08-21T07:51:02;3.67;;;1.67;;
46090;SDS011;31826;53.572;10.170;2022-08-21T07:53:33;4.63;;;1.40;;
46090;SDS011;31826;53.572;10.170;2022-08-21T07:55:59;5.72;;;1.50;;
46090;SDS011;31826;53.572;10.170;2022-08-21T07:58:26;7.10;;;1.50;;
46090;SDS011;31826;53.572;10.170;2022-08-21T08:00:51;2.83;;;1.67;;
46090;SDS011;31826;53.572;10.170;2022-08-21T08:03:18;6.00;;;1.67;;
46090;SDS011;31826;53.572;10.170;2022-08-21T08:05:43;3.78;;;1.33;;
46090;SDS011;31826;53.572;10.170;2022-08-21T08:08:09;3.20;;;1.33;;
46090;SDS011;31826;53.572;10.170;2022-08-21T08:10:35;5.93;;;1.60;;
46090;SDS011;31826;53.572;10.170;2022-08-21T08:13:02;4.47;;;1.30;;
46090;SDS011;31826;53.572;10.170;2022-08-21T08:15:28;4.40;;;1.67;;
46090;SDS011;31826;53.572;10.170;2022-08-21T08:17:54;3.83;;;1.60;;
46090;SDS011;31826;53.572;10.170;2022-08-21T08:20:21;4.05;;;1.50;;
46090;SDS011;31826;53.572;10.170;2022-08-21T08:22:48;5.30;;;1.40;;
46090;SDS011;31826;53.572;10.170;2022-08-21T08:25:14;4.38;;;1.73;;
46090;SDS011;31826;53.572;10.170;2022-08-21T08:27:43;4.13;;;1.45;;
46090;SDS011;31826;53.572;10.170;2022-08-21T08:30:10;3.17;;;1.20;;
46090;SDS011;31826;53.572;10.170;2022-08-21T08:32:38;3.95;;;1.33;;
46090;SDS011;31826;53.572;10.170;2022-08-21T08:35:05;3.85;;;1.60;;
46090;SDS011;31826;53.572;10.170;2022-08-21T08:37:32;4.43;;;1.33;;
46090;SDS011;31826;53.572;10.170;2022-08-21T08:39:59;3.70;;;1.50;;
46090;SDS011;31826;53.572;10.170;2022-08-21T08:42:32;4.00;;;1.87;;
46090;SDS011;31826;53.572;10.170;2022-08-21T08:45:11;3.13;;;1.35;;
46090;SDS011;31826;53.572;10.170;2022-08-21T08:47:42;3.75;;;1.50;;
46090;SDS011;31826;53.572;10.170;2022-08-21T08:50:17;3.97;;;1.38;;
46090;SDS011;31826;53.572;10.170;2022-08-21T08:52:52;4.27;;;1.40;;
46090;SDS011;31826;53.572;10.170;2022-08-21T08:55:26;6.20;;;1.60;;
46090;SDS011;31826;53.572;10.170;2022-08-21T08:57:59;3.28;;;1.30;;
46090;SDS011;31826;53.572;10.170;2022-08-21T09:00:28;3.65;;;1.25;;
46090;SDS011;31826;53.572;10.170;2022-08-21T09:02:55;4.43;;;1.60;;
46090;SDS011;31826;53.572;10.170;2022-08-21T09:11:04;5.95;;;1.50;;
46090;SDS011;31826;53.572;10.170;2022-08-21T09:19:24;3.47;;;1.42;;
46090;SDS011;31826;53.572;10.170;2022-08-21T09:24:40;4.68;;;1.60;;
46090;SDS011;31826;53.572;10.170;2022-08-21T09:27:13;3.53;;;1.52;;
46090;SDS011;31826;53.572;10.170;2022-08-21T09:29:45;3.63;;;1.40;;
46090;SDS011;31826;53.572;10.170;2022-08-21T09:32:17;4.40;;;1.55;;
46090;SDS011;31826;53.572;10.170;2022-08-21T09:43:06;4.50;;;1.67;;
46090;SDS011;31826;53.572;10.170;2022-08-21T09:45:39;4.13;;;1.60;;
46090;SDS011;31826;53.572;10.170;2022-08-21T09:48:22;4.30;;;1.50;;
46090;SDS011;31826;53.572;10.170;2022-08-21T09:50:50;5.78;;;1.65;;
46090;SDS011;31826;53.572;10.170;2022-08-21T09:53:18;5.43;;;1.80;;
46090;SDS011;31826;53.572;10.170;2022-08-21T09:55:51;4.85;;;1.88;;
46090;SDS011;31826;53.572;10.170;2022-08-21T09:58:43;5.53;;;1.60;;
46090;SDS011;31826;53.572;10.170;2022-08-21T10:01:15;5.30;;;1.75;;
46090;SDS011;31826;53.572;10.170;2022-08-21T10:03:48;4.93;;;1.40;;
46090;SDS011;31826;53.572;10.170;2022-08-21T10:06:22;6.30;;;1.63;;
46090;SDS011;31826;53.572;10.170;2022-08-21T10:08:50;6.93;;;1.90;;
46090;SDS011;31826;53.572;10.170;2022-08-21T10:11:16;7.60;;;1.48;;
46090;SDS011;31826;53.572;10.170;2022-08-21T10:17:07;7.22;;;1.80;;
46090;SDS011;31826;53.572;10.170;2022-08-21T10:20:04;6.15;;;1.70;;
46090;SDS011;31826;53.572;10.170;2022-08-21T10:25:48;4.95;;;1.70;;
46090;SDS011;31826;53.572;10.170;2022-08-21T10:30:56;4.57;;;1.73;;
46090;SDS011;31826;53.572;10.170;2022-08-21T10:33:46;6.40;;;1.77;;
46090;SDS011;31826;53.572;10.170;2022-08-21T10:36:44;5.97;;;1.80;;
46090;SDS011;31826;53.572;10.170;2022-08-21T10:47:34;5.18;;;1.75;;
46090;SDS011;31826;53.572;10.170;2022-08-21T10:55:36;6.75;;;2.00;;
46090;SDS011;31826;53.572;10.170;2022-08-21T10:58:21;7.70;;;2.20;;
46090;SDS011;31826;53.572;10.170;2022-08-21T11:00:56;9.13;;;2.85;;
46090;SDS011;31826;53.572;10.170;2022-08-21T11:03:28;6.95;;;1.95;;
46090;SDS011;31826;53.572;10.170;2022-08-21T11:06:23;11.97;;;2.30;;
46090;SDS011;31826;53.572;10.170;2022-08-21T11:08:57;5.13;;;1.80;;
46090;SDS011;31826;53.572;10.170;2022-08-21T11:11:30;7.87;;;1.80;;
46090;SDS011;31826;53.572;10.170;2022-08-21T11:17:06;6.67;;;1.93;;
46090;SDS011;31826;53.572;10.170;2022-08-21T11:21:59;6.63;;;1.60;;
46090;SDS011;31826;53.572;10.170;2022-08-21T11:30:04;4.38;;;1.58;;
46090;SDS011;31826;53.572;10.170;2022-08-21T11:35:28;5.07;;;1.63;;
46090;SDS011;31826;53.572;10.170;2022-08-21T11:37:58;5.32;;;1.83;;
46090;SDS011;31826;53.572;10.170;2022-08-21T11:51:19;3.78;;;1.42;;
46090;SDS011;31826;53.572;10.170;2022-08-21T11:54:07;6.40;;;1.70;;
46090;SDS011;31826;53.572;10.170;2022-08-21T11:56:38;4.18;;;1.50;;
46090;SDS011;31826;53.572;10.170;2022-08-21T11:59:10;4.70;;;1.58;;
46090;SDS011;31826;53.572;10.170;2022-08-21T12:01:44;3.33;;;1.25;;
46090;SDS011;31826;53.572;10.170;2022-08-21T12:04:32;5.25;;;1.60;;
46090;SDS011;31826;53.572;10.170;2022-08-21T12:07:11;2.58;;;1.38;;
46090;SDS011;31826;53.572;10.170;2022-08-21T12:09:39;3.28;;;1.65;;
46090;SDS011;31826;53.572;10.170;2022-08-21T12:12:30;3.77;;;1.47;;
46090;SDS011;31826;53.572;10.170;2022-08-21T12:15:12;3.92;;;1.38;;
46090;SDS011;31826;53.572;10.170;2022-08-21T12:17:39;4.68;;;1.65;;
46090;SDS011;31826;53.572;10.170;2022-08-21T12:20:18;2.80;;;1.13;;
46090;SDS011;31826;53.572;10.170;2022-08-21T12:23:14;4.75;;;1.65;;
46090;SDS011;31826;53.572;10.170;2022-08-21T12:26:00;5.78;;;1.60;;
46090;SDS011;31826;53.572;10.170;2022-08-21T12:28:29;4.10;;;1.52;;
46090;SDS011;31826;53.572;10.170;2022-08-21T12:30:56;4.20;;;1.17;;
46090;SDS011;31826;53.572;10.170;2022-08-21T12:36:11;3.55;;;1.45;;
46090;SDS011;31826;53.572;10.170;2022-08-21T12:42:04;3.20;;;1.25;;
46090;SDS011;31826;53.572;10.170;2022-08-21T12:44:13;2.80;;;1.30;;
46090;SDS011;31826;53.572;10.170;2022-08-21T12:46:56;2.90;;;1.40;;
46090;SDS011;31826;53.572;10.170;2022-08-21T12:49:37;3.40;;;1.23;;
46090;SDS011;31826;53.572;10.170;2022-08-21T12:52:32;4.82;;;1.58;;
46090;SDS011;31826;53.572;10.170;2022-08-21T12:55:05;4.10;;;1.20;;
46090;SDS011;31826;53.572;10.170;2022-08-21T12:57:36;4.68;;;1.50;;
46090;SDS011;31826;53.572;10.170;2022-08-21T13:00:04;3.25;;;1.20;;
46090;SDS011;31826;53.572;10.170;2022-08-21T13:02:36;2.60;;;1.20;;
46090;SDS011;31826;53.572;10.170;2022-08-21T13:05:08;3.63;;;1.20;;
46090;SDS011;31826;53.572;10.170;2022-08-21T13:07:43;2.83;;;1.15;;
46090;SDS011;31826;53.572;10.170;2022-08-21T13:10:22;4.20;;;1.30;;
46090;SDS011;31826;53.572;10.170;2022-08-21T13:12:50;2.40;;;1.20;;
46090;SDS011;31826;53.572;10.170;2022-08-21T13:15:34;2.37;;;1.20;;
46090;SDS011;31826;53.572;10.170;2022-08-21T13:18:03;2.33;;;1.20;;
46090;SDS011;31826;53.572;10.170;2022-08-21T13:20:37;2.42;;;1.10;;
46090;SDS011;31826;53.572;10.170;2022-08-21T13:23:16;4.10;;;1.40;;
46090;SDS011;31826;53.572;10.170;2022-08-21T13:25:47;2.53;;;1.10;;
46090;SDS011;31826;53.572;10.170;2022-08-21T13:28:13;3.25;;;1.10;;
46090;SDS011;31826;53.572;10.170;2022-08-21T13:30:41;3.30;;;1.20;;
46090;SDS011;31826;53.572;10.170;2022-08-21T13:33:10;3.60;;;1.20;;
46090;SDS011;31826;53.572;10.170;2022-08-21T13:38:34;2.47;;;1.50;;
46090;SDS011;31826;53.572;10.170;2022-08-21T13:41:05;2.85;;;1.02;;
46090;SDS011;31826;53.572;10.170;2022-08-21T13:43:45;3.92;;;1.30;;
46090;SDS011;31826;53.572;10.170;2022-08-21T13:46:13;3.00;;;1.40;;
46090;SDS011;31826;53.572;10.170;2022-08-21T13:48:40;1.83;;;0.98;;
46090;SDS011;31826;53.572;10.170;2022-08-21T13:51:07;2.00;;;1.00;;
46090;SDS011;31826;53.572;10.170;2022-08-21T13:56:02;2.05;;;1.13;;
46090;SDS011;31826;53.572;10.170;2022-08-21T14:00:57;2.93;;;1.43;;
46090;SDS011;31826;53.572;10.170;2022-08-21T14:03:33;2.28;;;0.95;;
46090;SDS011;31826;53.572;10.170;2022-08-21T14:06:02;2.43;;;1.03;;
46090;SDS011;31826;53.572;10.170;2022-08-21T14:08:37;2.15;;;1.10;;
46090;SDS011;31826;53.572;10.170;2022-08-21T14:11:09;1.92;;;1.00;;
46090;SDS011;31826;53.572;10.170;2022-08-21T14:13:38;3.22;;;1.17;;
46090;SDS011;31826;53.572;10.170;2022-08-21T14:16:52;2.47;;;1.20;;
46090;SDS011;31826;53.572;10.170;2022-08-21T14:19:10;2.33;;;1.08;;
46090;SDS011;31826;53.572;10.170;2022-08-21T14:21:44;1.83;;;1.02;;
46090;SDS011;31826;53.572;10.170;2022-08-21T14:24:24;1.83;;;1.00;;
46090;SDS011;31826;53.572;10.170;2022-08-21T14:27:01;1.70;;;0.93;;
46090;SDS011;31826;53.572;10.170;2022-08-21T14:29:37;2.88;;;1.10;;
46090;SDS011;31826;53.572;10.170;2022-08-21T14:32:09;2.30;;;1.30;;
46090;SDS011;31826;53.572;10.170;2022-08-21T14:34:39;5.88;;;2.38;;
46090;SDS011;31826;53.572;10.170;2022-08-21T14:37:05;5.47;;;1.95;;
46090;SDS011;31826;53.572;10.170;2022-08-21T14:39:31;3.00;;;1.20;;
46090;SDS011;31826;53.572;10.170;2022-08-21T14:41:57;2.53;;;1.20;;
46090;SDS011;31826;53.572;10.170;2022-08-21T14:44:23;2.22;;;1.08;;
46090;SDS011;31826;53.572;10.170;2022-08-21T14:46:50;3.42;;;1.00;;
46090;SDS011;31826;53.572;10.170;2022-08-21T14:49:16;3.20;;;1.15;;
46090;SDS011;31826;53.572;10.170;2022-08-21T14:51:41;2.72;;;1.10;;
46090;SDS011;31826;53.572;10.170;2022-08-21T14:54:07;3.77;;;1.20;;
46090;SDS011;31826;53.572;10.170;2022-08-21T14:56:33;3.60;;;1.00;;
46090;SDS011;31826;53.572;10.170;2022-08-21T14:59:04;2.90;;;0.90;;
46090;SDS011;31826;53.572;10.170;2022-08-21T15:01:32;2.63;;;0.90;;
46090;SDS011;31826;53.572;10.170;2022-08-21T15:04:09;1.88;;;1.05;;
46090;SDS011;31826;53.572;10.170;2022-08-21T15:06:35;1.35;;;0.95;;
46090;SDS011;31826;53.572;10.170;2022-08-21T15:09:01;2.38;;;1.20;;
46090;SDS011;31826;53.572;10.170;2022-08-21T15:11:29;1.70;;;1.00;;
46090;SDS011;31826;53.572;10.170;2022-08-21T15:13:55;2.60;;;1.13;;
46090;SDS011;31826;53.572;10.170;2022-08-21T15:16:23;4.05;;;1.23;;
46090;SDS011;31826;53.572;10.170;2022-08-21T15:18:49;2.05;;;1.00;;
46090;SDS011;31826;53.572;10.170;2022-08-21T15:21:15;2.65;;;1.30;;
46090;SDS011;31826;53.572;10.170;2022-08-21T15:23:40;4.70;;;1.40;;
46090;SDS011;31826;53.572;10.170;2022-08-21T15:26:06;2.97;;;1.20;;
46090;SDS011;31826;53.572;10.170;2022-08-21T15:28:33;2.58;;;1.13;;
46090;SDS011;31826;53.572;10.170;2022-08-21T15:31:00;3.33;;;1.30;;
46090;SDS011;31826;53.572;10.170;2022-08-21T15:33:26;2.28;;;1.10;;
46090;SDS011;31826;53.572;10.170;2022-08-21T15:35:52;2.45;;;1.15;;
46090;SDS011;31826;53.572;10.170;2022-08-21T15:38:18;6.38;;;1.70;;
46090;SDS011;31826;53.572;10.170;2022-08-21T15:40:43;4.23;;;1.80;;
46090;SDS011;31826;53.572;10.170;2022-08-21T15:43:24;2.60;;;1.33;;
46090;SDS011;31826;53.572;10.170;2022-08-21T15:45:51;4.20;;;1.40;;
46090;SDS011;31826;53.572;10.170;2022-08-21T15:48:17;1.95;;;1.00;;
46090;SDS011;31826;53.572;10.170;2022-08-21T15:50:44;4.55;;;1.15;;
46090;SDS011;31826;53.572;10.170;2022-08-21T15:53:10;2.55;;;1.08;;
46090;SDS011;31826;53.572;10.170;2022-08-21T15:55:35;2.90;;;1.20;;
46090;SDS011;31826;53.572;10.170;2022-08-21T15:58:01;3.07;;;1.13;;
46090;SDS011;31826;53.572;10.170;2022-08-21T16:00:29;4.28;;;1.20;;
46090;SDS011;31826;53.572;10.170;2022-08-21T16:02:59;2.17;;;1.10;;
46090;SDS011;31826;53.572;10.170;2022-08-21T16:05:27;2.00;;;0.95;;
46090;SDS011;31826;53.572;10.170;2022-08-21T16:07:53;2.58;;;1.08;;